Time;durP1;ratioP1;P1;durP2;ratioP2;P2;SDS_P1;SDS_P2;PMS_P1;PMS_P2;Temp;Humidity;BMP_temperature;BMP_pressure;BME280_temperature;BME280_humidity;BME280_pressure;Samples;Min_cycle;Max_cycle;Signal;HPM_P1;HPM_P2
2022/09/14 00:01:27;;;;;;;18.50;1.65;;;14.50;99.90;;;13.54;100.00;100106.81;5068098;28;20043;-77
2022/09/14 00:04:15;;;;;;;9.00;1.85;;;14.50;99.90;;;13.49;100.00;100101.84;5082233;28;20036;-77
2022/09/14 00:06:45;;;;;;;12.68;1.73;;;14.50;99.90;;;13.44;100.00;100103.97;5072094;28;20036;-77
2022/09/14 00:09:21;;;;;;;10.25;1.17;;;14.50;99.90;;;13.40;100.00;100101.66;5053870;28;20032;-77
2022/09/14 00:11:48;;;;;;;17.90;1.75;;;14.40;99.90;;;13.35;100.00;100099.31;5066734;28;20032;-77
2022/09/14 00:14:15;;;;;;;13.55;1.67;;;14.30;99.90;;;13.29;100.00;100092.66;5053333;28;20032;-77
2022/09/14 00:16:41;;;;;;;10.75;1.52;;;14.40;99.90;;;13.25;100.00;100096.41;5065036;28;20080;-77
2022/09/14 00:19:23;;;;;;;13.90;1.55;;;14.30;99.90;;;13.24;100.00;100091.22;5076559;28;20032;-77
2022/09/14 00:22:00;;;;;;;13.00;1.60;;;14.30;99.90;;;13.23;100.00;100095.66;5074042;28;20027;-77
2022/09/14 00:24:31;;;;;;;14.07;1.92;;;14.30;99.90;;;13.24;100.00;100091.22;5056733;23;20409;-77
2022/09/14 00:27:01;;;;;;;10.85;1.60;;;14.30;99.90;;;13.25;100.00;100079.72;5014423;28;20037;-77
2022/09/14 00:29:29;;;;;;;13.32;1.42;;;14.30;99.90;;;13.25;100.00;100082.34;5029207;28;20493;-77
2022/09/14 00:31:55;;;;;;;12.90;1.52;;;14.30;99.90;;;13.25;100.00;100082.34;5048979;28;20473;-77
2022/09/14 00:34:21;;;;;;;17.38;2.25;;;14.30;99.90;;;13.24;100.00;100081.50;5058604;28;20037;-78
2022/09/14 00:36:49;;;;;;;14.30;1.30;;;14.30;99.90;;;13.23;100.00;100084.25;5036174;28;20030;-77
2022/09/14 00:39:18;;;;;;;13.00;1.48;;;14.30;99.90;;;13.18;100.00;100071.34;5015771;28;20115;-78
2022/09/14 00:41:47;;;;;;;12.25;1.90;;;14.20;99.90;;;13.15;100.00;100071.53;5091839;22;20186;-84
2022/09/14 00:44:13;;;;;;;13.18;1.85;;;14.20;99.90;;;13.14;100.00;100069.88;5090231;28;20495;-84
2022/09/14 00:47:02;;;;;;;12.23;1.60;;;14.20;99.90;;;13.16;100.00;100067.13;5073488;28;20032;-84
2022/09/14 00:49:51;;;;;;;10.38;2.03;;;14.20;99.90;;;13.16;100.00;100072.41;5077600;28;20051;-84
2022/09/14 00:52:31;;;;;;;17.58;2.05;;;14.20;99.90;;;13.14;100.00;100065.41;5059493;28;20031;-84
2022/09/14 00:55:35;;;;;;;14.98;1.92;;;14.20;99.90;;;13.14;100.00;100069.88;5057622;28;20027;-84
2022/09/14 00:58:01;;;;;;;10.20;1.48;;;14.20;99.90;;;13.15;100.00;100074.19;5075681;28;20056;-83
2022/09/14 01:00:41;;;;;;;16.25;1.98;;;14.20;99.90;;;13.18;100.00;100073.16;5088662;28;20484;-84
2022/09/14 01:03:07;;;;;;;15.90;1.65;;;14.20;99.90;;;13.17;100.00;100084.66;5087430;28;20032;-84
2022/09/14 01:06:00;;;;;;;8.32;1.38;;;14.20;99.90;;;13.20;100.00;100073.91;5063549;28;20108;-84
2022/09/14 01:09:53;;;;;;;;;;;;;;;;;;;;;
2022/09/14 01:12:36;;;;;;;;;;;;;;;;;;;;;
2022/09/14 01:16:12;;;;;;;18.70;2.30;;;14.30;99.90;;;13.33;100.00;100072.16;5083664;28;20025;-85
2022/09/14 01:19:08;;;;;;;12.25;1.50;;;;;;;13.35;100.00;100059.66;5010063;28;20056;-85
2022/09/14 01:22:21;;;;;;;11.52;2.05;;;14.40;99.90;;;13.40;100.00;100065.47;5075297;28;20029;-83
2022/09/14 01:25:44;;;;;;;13.35;1.80;;;14.40;99.90;;;13.38;100.00;100061.25;5084143;28;20031;-83
2022/09/14 01:28:55;;;;;;;;;;;;;;;;;;;;;
2022/09/14 01:32:10;;;;;;;8.55;1.40;;;14.40;99.90;;;13.30;100.00;100059.97;5087126;28;20579;-84
2022/09/14 01:35:05;;;;;;;11.30;1.42;;;;;;;13.26;100.00;100066.41;5067656;28;20032;-84
2022/09/14 01:38:35;;;;;;;17.20;2.38;;;14.30;99.90;;;13.16;100.00;100065.31;5063977;28;20044;-84
2022/09/14 01:41:32;;;;;;;15.57;1.70;;;14.20;99.90;;;13.09;100.00;100061.41;4998362;28;20042;-84
2022/09/14 01:44:43;;;;;;;13.57;1.58;;;;;;;12.99;100.00;100053.25;4995346;28;20055;-85
2022/09/14 01:47:54;;;;;;;15.30;1.80;;;14.00;99.90;;;12.85;100.00;100054.19;5034245;28;20040;-84
2022/09/14 01:51:17;;;;;;;;;;;;;;;;;;;;;
2022/09/14 01:54:32;;;;;;;20.38;1.70;;;13.90;99.90;;;12.81;100.00;100051.84;5076135;28;20047;-84
2022/09/14 01:57:34;;;;;;;12.82;1.83;;;13.90;99.90;;;12.82;100.00;100062.28;5072348;28;20028;-84
2022/09/14 02:00:24;;;;;;;16.98;1.95;;;13.90;99.90;;;12.82;100.00;100051.72;5085906;28;20036;-84
2022/09/14 02:03:16;;;;;;;19.13;1.88;;;13.90;99.90;;;12.87;100.00;100052.28;5053081;28;20072;-84
2022/09/14 02:06:18;;;;;;;18.15;1.88;;;13.90;99.90;;;12.89;100.00;100047.75;5089613;28;20031;-85
2022/09/14 02:08:44;;;;;;;17.38;1.65;;;13.90;99.90;;;12.95;100.00;100045.63;5037130;28;20043;-84
2022/09/14 02:11:10;;;;;;;14.98;1.85;;;14.00;99.90;;;13.01;100.00;100042.59;5053317;28;20032;-84
2022/09/14 02:13:43;;;;;;;16.17;2.25;;;14.00;99.90;;;13.06;100.00;100041.28;5073474;28;20032;-84
2022/09/14 02:16:12;;;;;;;19.65;2.00;;;14.10;99.90;;;13.12;100.00;100045.34;5094291;28;20081;-85
2022/09/14 02:18:49;;;;;;;;;;;;;;;;;;;;;
2022/09/14 02:22:02;;;;;;;13.85;1.70;;;14.20;99.90;;;13.21;100.00;100038.56;5078843;28;20021;-84
2022/09/14 02:24:55;;;;;;;20.60;2.17;;;14.20;99.90;;;13.25;100.00;100040.91;5074615;28;20027;-83
2022/09/14 02:27:21;;;;;;;15.93;1.80;;;14.30;99.90;;;13.29;100.00;100034.47;5071106;28;20119;-82
2022/09/14 02:29:51;;;;;;;18.35;1.83;;;14.30;99.90;;;13.31;100.00;100040.50;5065848;28;20024;-82
2022/09/14 02:32:41;;;;;;;13.32;2.03;;;14.30;99.90;;;13.36;100.00;100032.25;5058414;28;20028;-82
2022/09/14 02:35:32;;;;;;;12.98;1.55;;;14.40;99.90;;;13.36;100.00;100029.63;5079829;28;20059;-82
2022/09/14 02:38:19;;;;;;;13.60;1.90;;;14.40;99.90;;;13.37;100.00;100025.16;5086210;28;20025;-82
2022/09/14 02:43:49;;;;;;;15.20;1.48;;;14.40;99.90;;;13.39;100.00;100026.78;5085666;22;20052;-82
2022/09/14 02:46:21;;;;;;;14.55;2.13;;;14.40;99.90;;;13.39;100.00;100031.19;5070366;28;20117;-82
2022/09/14 02:49:24;;;;;;;13.02;2.33;;;14.40;99.90;;;13.40;100.00;100040.84;5064142;28;20059;-82
2022/09/14 02:52:24;;;;;;;22.33;1.90;;;14.40;99.90;;;13.41;100.00;100035.44;5072371;23;20032;-82
2022/09/14 02:55:18;;;;;;;14.32;1.98;;;14.40;99.90;;;13.43;100.00;100035.31;5092632;28;20025;-82
2022/09/14 02:58:02;;;;;;;18.50;2.03;;;14.50;99.90;;;13.45;100.00;100033.41;5093791;28;20035;-82
2022/09/14 03:00:31;;;;;;;17.45;1.88;;;14.50;99.90;;;13.49;100.00;100042.84;5085887;28;20028;-83
2022/09/14 03:03:03;;;;;;;11.98;1.92;;;14.50;99.90;;;13.49;100.00;100032.25;5088009;28;20062;-82
2022/09/14 03:05:29;;;;;;;17.08;1.77;;;14.50;99.90;;;13.47;100.00;100035.00;5092928;28;20054;-82
2022/09/14 03:07:55;;;;;;;13.50;1.98;;;14.50;99.90;;;13.47;100.00;100035.00;5083774;28;20020;-83
2022/09/14 03:10:22;;;;;;;21.02;2.40;;;14.50;99.90;;;13.50;100.00;100033.97;5073164;28;20216;-83
2022/09/14 03:12:50;;;;;;;11.80;1.98;;;14.50;99.90;;;13.52;100.00;100034.69;5093578;28;20039;-83
2022/09/14 03:15:21;;;;;;;17.08;2.13;;;14.50;99.90;;;13.52;100.00;100026.78;5093386;28;20477;-82
2022/09/14 03:17:49;;;;;;;18.02;2.10;;;14.50;99.90;;;13.52;100.00;100032.91;5086990;28;20024;-82
2022/09/14 03:20:27;;;;;;;18.73;2.05;;;14.50;99.90;;;13.51;100.00;100031.19;5076833;28;20024;-83
2022/09/14 03:22:53;;;;;;;11.93;2.05;;;14.50;99.90;;;13.51;100.00;100033.00;5100825;28;20511;-83
2022/09/14 03:25:19;;;;;;;26.35;2.50;;;14.50;99.90;;;13.52;100.00;100032.06;5099797;28;20031;-83
2022/09/14 03:27:58;;;;;;;16.38;1.95;;;14.60;99.90;;;13.53;100.00;100023.16;5099821;28;20020;-82
2022/09/14 03:30:26;;;;;;;16.00;1.83;;;14.60;99.90;;;13.55;100.00;100026.53;5076847;28;20054;-82
2022/09/14 03:32:54;;;;;;;12.82;2.08;;;14.60;99.90;;;13.58;100.00;100021.03;5104991;28;20035;-83
2022/09/14 03:35:22;;;;;;;23.33;2.08;;;14.60;99.90;;;13.61;100.00;100012.88;5094264;28;20046;-83
2022/09/14 03:37:48;;;;;;;17.60;2.38;;;14.60;99.90;;;13.64;100.00;100023.25;5101678;28;20034;-82
2022/09/14 03:40:20;;;;;;;26.15;2.15;;;14.70;99.90;;;13.67;100.00;100023.03;5100298;28;20028;-83
2022/09/14 03:42:48;;;;;;;17.60;2.25;;;14.70;99.90;;;13.68;100.00;100021.22;5098361;28;20027;-83
2022/09/14 03:45:16;;;;;;;23.50;2.40;;;14.60;99.90;;;13.66;100.00;100013.41;5101020;28;20047;-83
2022/09/14 03:47:42;;;;;;;24.80;2.63;;;14.70;99.90;;;13.65;100.00;100014.38;5077856;28;20506;-83
2022/09/14 03:50:11;;;;;;;14.90;2.28;;;14.70;99.90;;;13.67;100.00;100024.81;5083602;28;20038;-83
2022/09/14 03:52:40;;;;;;;18.58;2.38;;;14.70;99.90;;;13.64;100.00;100020.59;5077947;23;20044;-83
2022/09/14 03:55:19;;;;;;;;;;;;;;;;;;;;;
2022/09/14 03:57:45;;;;;;;14.65;2.60;;;14.60;99.90;;;13.57;100.00;100024.63;5071615;28;20036;-83
2022/09/14 04:00:13;;;;;;;16.42;2.00;;;14.70;99.90;;;13.57;100.00;100029.09;5072259;28;20108;-84
2022/09/14 04:03:02;;;;;;;16.88;2.30;;;14.60;99.90;;;13.55;100.00;100029.19;5043072;23;20045;-83
2022/09/14 04:05:31;;;;;;;14.82;2.15;;;14.60;99.90;;;13.52;100.00;100026.78;5029594;28;20095;-83
2022/09/14 04:07:56;;;;;;;21.45;2.67;;;14.60;99.90;;;13.52;100.00;100030.25;5018755;28;20112;-84
2022/09/14 04:10:22;;;;;;;23.35;2.20;;;14.60;99.90;;;13.49;100.00;100024.31;5027616;28;20079;-83
2022/09/14 04:12:53;;;;;;;15.85;2.17;;;14.60;99.90;;;13.45;100.00;100020.19;5033932;28;20029;-82
2022/09/14 04:15:19;;;;;;;16.88;2.15;;;14.50;99.90;;;13.43;100.00;100028.22;5053392;28;20087;-84
2022/09/14 04:17:45;;;;;;;12.40;2.15;;;14.50;99.90;;;13.41;100.00;100030.16;5025978;28;20108;-83
2022/09/14 04:20:13;;;;;;;17.90;2.22;;;14.50;99.90;;;13.41;100.00;100035.44;5016095;28;20063;-84
2022/09/14 04:22:39;;;;;;;20.83;2.50;;;14.50;99.90;;;13.40;100.00;100038.19;5049267;23;20033;-83
2022/09/14 04:25:07;;;;;;;18.27;2.00;;;14.40;99.90;;;13.40;100.00;100043.47;5018641;28;20102;-83
2022/09/14 04:27:33;;;;;;;16.73;2.20;;;14.40;99.90;;;13.38;100.00;100034.81;5019343;28;20738;-84
2022/09/14 04:29:58;;;;;;;20.13;2.17;;;14.50;99.90;;;13.39;100.00;100033.84;5032276;28;20033;-83
2022/09/14 04:32:24;;;;;;;20.13;3.03;;;14.50;99.90;;;13.36;100.00;100034.91;5029768;28;20106;-82
2022/09/14 04:34:50;;;;;;;20.00;2.10;;;14.40;99.90;;;13.36;100.00;100036.72;5046660;28;20400;-83
2022/09/14 04:37:16;;;;;;;18.88;1.95;;;14.40;99.90;;;13.39;100.00;100039.13;5058497;28;20104;-83
2022/09/14 04:39:41;;;;;;;14.65;2.28;;;14.40;99.90;;;13.40;100.00;100038.19;5043528;28;20053;-83
2022/09/14 04:42:14;;;;;;;18.00;2.20;;;14.50;99.90;;;13.42;100.00;100046.88;5020209;23;20038;-84
2022/09/14 04:44:44;;;;;;;30.45;2.90;;;;;;;13.42;100.00;100045.06;5012159;28;20084;-84
2022/09/14 04:47:21;;;;;;;24.15;2.40;;;14.50;99.90;;;13.42;100.00;100039.78;5032862;28;20029;-83
2022/09/14 04:49:47;;;;;;;15.32;1.95;;;14.50;99.90;;;13.40;100.00;100036.38;5015741;28;20041;-84
2022/09/14 04:52:54;;;;;;;13.90;2.33;;;14.50;99.90;;;13.41;100.00;100043.38;5019704;28;20022;-83
2022/09/14 04:55:23;;;;;;;17.10;2.13;;;14.40;99.90;;;13.42;100.00;100044.22;5003942;28;20049;-84
2022/09/14 04:58:13;;;;;;;13.43;2.10;;;14.50;99.90;;;13.43;100.00;100049.38;5013774;28;20268;-84
2022/09/14 05:00:42;;;;;;;17.33;2.35;;;14.50;99.90;;;13.46;100.00;100043.06;5040346;28;20112;-83
2022/09/14 05:03:34;;;;;;;24.13;2.33;;;14.50;99.90;;;13.47;100.00;100045.56;5027644;23;20037;-83
2022/09/14 05:06:05;;;;;;;14.57;2.05;;;14.50;99.90;;;13.47;100.00;100039.44;5043511;28;20401;-84
2022/09/14 05:08:40;;;;;;;12.10;1.75;;;14.50;99.90;;;13.49;100.00;100043.66;5043900;28;20384;-82
2022/09/14 05:11:24;;;;;;;23.85;2.55;;;14.50;99.90;;;13.51;100.00;100046.22;5036664;28;20107;-83
2022/09/14 05:14:00;;;;;;;18.52;2.30;;;14.50;99.90;;;13.52;100.00;100046.13;5020085;28;20033;-83
2022/09/14 05:16:40;;;;;;;17.90;2.67;;;14.60;99.90;;;13.56;100.00;100037.97;5042228;28;20036;-83
2022/09/14 05:19:18;;;;;;;18.23;2.03;;;14.60;99.90;;;13.59;100.00;100046.53;5036613;28;20029;-83
2022/09/14 05:21:44;;;;;;;17.42;2.47;;;14.60;99.90;;;13.63;100.00;100041.84;5014184;28;20026;-83
2022/09/14 05:24:24;;;;;;;19.15;2.28;;;14.60;99.90;;;13.71;100.00;100032.44;5045121;28;20397;-84
2022/09/14 05:26:52;;;;;;;20.17;2.60;;;14.70;99.90;;;13.75;100.00;100036.53;5061095;28;20393;-84
2022/09/14 05:29:28;;;;;;;;;;;;;;;;;;;;;
2022/09/14 05:31:54;;;;;;;17.75;2.50;;;14.80;99.90;;;13.86;100.00;100032.31;5034477;28;20021;-84
2022/09/14 05:34:20;;;;;;;17.70;2.22;;;14.80;99.90;;;13.89;100.00;100024.16;5036943;28;20090;-83
2022/09/14 05:36:46;;;;;;;22.30;2.75;;;14.80;99.90;;;13.94;100.00;100022.84;5012882;28;20038;-83
2022/09/14 05:39:24;;;;;;;24.42;3.47;;;14.90;99.90;;;14.03;100.00;100026.63;5019513;28;20022;-82
2022/09/14 05:42:03;;;;;;;19.50;2.47;;;15.00;99.90;;;14.12;100.00;100020.69;5016145;28;20033;-84
2022/09/14 05:44:40;;;;;;;20.70;2.45;;;15.00;99.90;;;14.23;100.00;100016.41;5014004;28;20656;-83
2022/09/14 05:47:06;;;;;;;18.70;2.30;;;;;;;14.38;100.00;100020.56;5049399;28;20030;-83
2022/09/14 05:49:32;;;;;;;15.68;2.40;;;15.30;99.90;;;14.51;100.00;100020.50;5033272;28;20033;-83
2022/09/14 05:52:08;;;;;;;;;;;;;;;;;;;;;
2022/09/14 05:54:34;;;;;;;16.38;2.30;;;15.40;99.90;;;14.62;100.00;100025.91;5037478;28;20017;-83
2022/09/14 05:57:00;;;;;;;13.00;2.10;;;15.50;99.90;;;14.63;100.00;100026.75;5036173;28;20043;-83
2022/09/14 05:59:25;;;;;;;17.95;2.65;;;15.50;99.90;;;14.59;100.00;100026.13;5059834;28;20084;-83
2022/09/14 06:02:05;;;;;;;21.17;2.55;;;15.50;99.90;;;14.56;100.00;100024.56;5039784;28;20065;-83
2022/09/14 06:04:41;;;;;;;;;;;;;;;;;;;;;
2022/09/14 06:07:10;;;;;;;;;;;15.40;99.90;;;14.79;100.00;100035.22;5040018;28;20031;-83
2022/09/14 06:09:45;;;;;;;18.52;1.98;;;15.60;99.90;;;15.06;98.67;100036.75;5052375;28;19909;-83
2022/09/14 06:12:13;;;;;;;22.08;3.35;;;;;;;15.23;97.22;100035.47;5014535;28;20029;-83
2022/09/14 06:14:48;;;;;;;23.50;2.80;;;15.90;99.90;;;15.50;95.58;100037.78;5029564;28;20035;-84
2022/09/14 06:17:14;;;;;;;27.10;3.03;;;16.10;99.90;;;16.69;90.74;100053.06;5042593;28;20033;-84
2022/09/14 06:19:43;;;;;;;20.98;2.28;;;;;;;16.64;87.67;100048.13;5023498;28;20715;-84
2022/09/14 06:22:30;;;;;;;18.10;2.67;;;16.70;99.90;;;16.42;88.80;100048.22;5029867;28;20029;-84
2022/09/14 06:24:59;;;;;;;15.00;2.42;;;;;;;16.36;89.12;100047.72;5018195;28;20617;-83
2022/09/14 06:27:26;;;;;;;18.42;2.50;;;;;;;16.37;89.51;100040.59;5036347;28;20037;-83
2022/09/14 06:30:06;;;;;;;15.52;2.40;;;17.00;99.90;;;16.58;88.93;100040.66;5039381;28;20025;-83
2022/09/14 06:32:43;;;;;;;21.63;3.15;;;17.20;99.90;;;16.80;87.31;100055.69;5049255;28;20028;-84
2022/09/14 06:35:27;;;;;;;20.85;2.55;;;17.30;99.90;;;16.99;85.86;100039.03;5039867;28;20028;-84
2022/09/14 06:38:01;;;;;;;18.67;2.80;;;17.40;99.90;;;17.36;84.30;100044.72;5042586;28;20036;-84
2022/09/14 06:40:37;;;;;;;;;;;;;;;;;;;;;
2022/09/14 06:43:03;;;;;;;18.88;2.60;;;17.90;99.90;;;19.50;77.15;100051.34;5069767;23;20041;-83
2022/09/14 06:45:31;;;;;;;17.70;2.35;;;18.60;99.90;;;20.42;71.46;100040.63;5052808;28;20033;-84
2022/09/14 06:47:57;;;;;;;20.27;2.60;;;19.50;99.90;;;22.42;64.95;100054.13;5046046;28;20057;-84
2022/09/14 06:50:28;;;;;;;13.43;2.47;;;20.50;99.90;;;24.05;60.58;100055.00;5068253;28;20053;-82
2022/09/14 06:52:54;;;;;;;20.70;3.25;;;21.70;99.90;;;25.33;56.71;100049.88;5061834;22;20045;-77
2022/09/14 06:55:20;;;;;;;16.98;2.60;;;21.90;99.90;;;26.94;53.49;100055.41;5048625;28;20493;-78
2022/09/14 06:57:47;;;;;;;17.73;3.20;;;24.30;99.90;;;28.89;49.05;100050.75;5050830;28;20032;-77
2022/09/14 07:00:13;;;;;;;11.10;2.17;;;25.60;99.90;;;30.14;46.18;100069.75;5046938;28;20076;-78
2022/09/14 07:02:46;;;;;;;11.90;2.30;;;26.80;99.90;;;31.16;44.59;100061.59;5046914;28;20025;-78
2022/09/14 07:05:17;;;;;;;10.95;2.33;;;28.00;99.80;;;31.83;42.54;100075.38;5042265;28;20033;-78
2022/09/14 07:07:43;;;;;;;15.65;2.80;;;29.00;99.20;;;32.72;41.65;100089.34;5047835;28;20616;-78
2022/09/14 07:10:16;;;;;;;17.33;3.08;;;29.80;96.40;;;32.49;40.39;100090.91;5067110;28;20032;-78
2022/09/14 07:12:41;;;;;;;14.75;2.60;;;30.20;95.90;;;31.96;41.64;100097.00;5057463;28;20401;-78
2022/09/14 07:15:08;;;;;;;19.98;2.92;;;30.40;94.10;;;31.82;41.45;100099.03;5060596;28;20032;-78
2022/09/14 07:17:35;;;;;;;12.23;2.22;;;30.40;95.30;;;30.74;42.45;100100.16;5041574;28;20048;-78
2022/09/14 07:20:06;;;;;;;12.85;2.45;;;30.40;94.20;;;31.51;41.59;100112.75;5042943;28;20028;-78
2022/09/14 07:22:35;;;;;;;14.95;2.55;;;30.40;94.10;;;31.39;41.45;100109.94;5058855;28;20460;-78
2022/09/14 07:25:01;;;;;;;13.15;3.03;;;30.50;93.80;;;31.56;41.33;100115.66;5042641;28;20052;-78
2022/09/14 07:27:27;;;;;;;11.27;2.33;;;30.80;93.40;;;32.15;40.13;100118.81;5042644;28;20028;-78
2022/09/14 07:29:58;;;;;;;17.95;3.00;;;31.10;92.60;;;31.99;39.92;100112.91;5034981;28;20492;-78
2022/09/14 07:32:24;;;;;;;10.93;2.60;;;31.30;92.20;;;32.02;40.31;100120.63;5059306;28;20033;-78
2022/09/14 07:34:49;;;;;;;14.95;2.83;;;31.50;92.70;;;32.50;39.33;100125.25;5045094;28;20043;-79
2022/09/14 07:37:15;;;;;;;18.45;2.75;;;32.00;92.20;;;32.99;39.06;100119.75;5032304;28;20032;-78
2022/09/14 07:39:41;;;;;;;16.55;3.20;;;32.60;91.00;;;33.46;38.54;100125.28;5062881;28;20556;-80
2022/09/14 07:42:07;;;;;;;15.32;2.33;;;33.00;90.00;;;33.67;37.82;100132.09;5043116;28;20039;-79
2022/09/14 07:44:38;;;;;;;12.40;2.78;;;33.00;90.00;;;33.01;37.95;100125.81;5060376;28;20103;-78
2022/09/14 07:47:04;;;;;;;13.95;2.83;;;32.60;88.70;;;31.18;40.06;100120.13;5052305;28;20032;-78
2022/09/14 07:49:29;;;;;;;17.67;3.00;;;31.90;89.10;;;30.53;41.13;100120.34;5059296;28;20550;-78
2022/09/14 07:51:55;;;;;;;11.77;2.25;;;31.20;90.30;;;30.46;41.09;100125.81;5052023;28;20093;-77
2022/09/14 07:54:21;;;;;;;19.13;3.17;;;30.30;90.40;;;28.18;44.48;100125.09;5080712;28;20024;-78
2022/09/14 07:56:48;;;;;;;11.40;2.55;;;29.30;91.90;;;27.13;46.86;100116.88;5079270;28;20028;-78
2022/09/14 07:59:16;;;;;;;16.35;2.95;;;28.10;93.00;;;25.95;48.69;100113.44;5050087;28;20022;-78
2022/09/14 08:01:42;;;;;;;15.93;2.60;;;26.90;94.50;;;24.94;50.95;100120.06;5078846;28;20028;-78
2022/09/14 08:04:08;;;;;;;16.52;2.78;;;25.90;95.80;;;24.03;53.07;100118.88;5077435;28;20032;-78
2022/09/14 08:06:36;;;;;;;19.98;3.42;;;25.00;96.60;;;23.14;54.82;100108.91;5061646;28;20036;-77
2022/09/14 08:09:13;;;;;;;19.10;3.03;;;24.10;97.70;;;22.21;56.56;100103.66;5076840;28;20038;-77
2022/09/14 08:11:38;;;;;;;16.65;2.90;;;23.20;99.10;;;21.31;58.96;100109.31;5061803;28;20059;-78
2022/09/14 08:14:10;;;;;;;13.10;2.78;;;22.60;99.90;;;21.43;60.33;100111.81;5068409;28;20570;-77
2022/09/14 08:16:39;;;;;;;16.13;2.65;;;22.50;99.90;;;21.94;60.05;100106.56;5064913;28;20039;-78
2022/09/14 08:19:11;;;;;;;15.13;2.40;;;22.50;99.90;;;21.78;58.99;100092.09;5061314;28;20027;-77
2022/09/14 08:21:37;;;;;;;16.40;2.58;;;22.30;99.90;;;21.22;59.29;100088.00;5075108;28;20028;-77
2022/09/14 08:24:06;;;;;;;10.88;2.40;;;22.00;99.90;;;20.71;61.45;100089.56;5067271;28;20024;-77
2022/09/14 08:26:35;;;;;;;20.08;2.75;;;21.50;99.90;;;20.09;63.45;100084.88;5079400;28;20423;-77
2022/09/14 08:29:03;;;;;;;18.63;3.25;;;21.10;99.90;;;19.84;64.60;100087.22;5065483;28;20020;-78
2022/09/14 08:31:30;;;;;;;11.20;2.05;;;20.80;99.90;;;19.52;65.67;100071.56;5058241;28;20020;-78
2022/09/14 08:34:01;;;;;;;16.95;2.63;;;20.60;99.90;;;19.81;65.11;100078.69;5080374;28;20567;-77
2022/09/14 08:36:46;;;;;;;15.60;2.45;;;20.50;99.90;;;19.64;65.88;100080.25;5075019;28;20025;-77
2022/09/14 08:39:17;;;;;;;20.08;2.20;;;20.40;99.90;;;19.51;66.54;100077.06;5080677;28;20032;-77
2022/09/14 08:41:43;;;;;;;20.50;2.70;;;20.30;99.90;;;19.35;67.08;100083.00;5048278;23;20042;-78
2022/09/14 08:44:11;;;;;;;21.30;3.78;;;20.30;99.90;;;19.61;66.96;100075.19;5027776;28;20175;-77
2022/09/14 08:47:23;;;;;;;16.70;2.20;;;20.40;99.90;;;19.76;66.70;100071.13;5032685;28;20043;-77
2022/09/14 08:50:07;;;;;;;16.00;2.72;;;20.60;99.90;;;20.42;63.99;100071.88;4957304;28;20164;-77
2022/09/14 08:52:37;;;;;;;17.15;2.83;;;21.20;99.90;;;21.29;62.42;100070.31;5040295;28;20464;-78
2022/09/14 08:55:47;;;;;;;17.90;2.50;;;21.60;99.90;;;21.67;60.97;100068.25;5049064;28;20100;-77
2022/09/14 08:58:42;;;;;;;10.82;2.35;;;22.20;99.90;;;22.32;58.08;100049.75;5048030;28;20036;-77
2022/09/14 09:01:42;;;;;;;12.93;2.03;;;22.60;99.90;;;22.50;57.61;100048.78;5051314;28;20060;-78
2022/09/14 09:04:39;;;;;;;10.73;2.10;;;22.80;99.90;;;22.35;57.56;100048.59;5054863;28;20517;-78
2022/09/14 09:07:55;;;;;;;12.15;2.78;;;22.70;99.90;;;22.22;57.26;100034.78;5053521;28;20509;-77
2022/09/14 09:10:31;;;;;;;14.23;2.72;;;22.60;99.90;;;21.98;57.86;100033.72;5049926;28;20037;-79
2022/09/14 09:13:00;;;;;;;15.90;3.05;;;22.40;99.90;;;21.75;59.35;100049.53;5037137;28;20037;-79
2022/09/14 09:15:39;;;;;;;13.93;2.45;;;22.30;99.90;;;21.73;59.03;100048.00;5050006;28;20029;-78
2022/09/14 09:18:21;;;;;;;18.70;2.40;;;22.20;99.90;;;21.68;58.98;100043.13;5052091;28;20489;-77
2022/09/14 09:21:10;;;;;;;17.88;2.97;;;22.30;99.90;;;21.81;59.29;100037.31;5051794;28;20021;-79
2022/09/14 09:23:39;;;;;;;17.75;2.63;;;22.20;99.90;;;21.45;58.42;100038.34;5052238;28;20048;-78
2022/09/14 09:26:28;;;;;;;15.32;2.58;;;22.00;99.90;;;21.24;60.40;100044.03;5037265;28;20044;-77
2022/09/14 09:29:04;;;;;;;17.13;2.47;;;21.80;99.90;;;21.06;61.01;100049.44;5051817;28;20132;-78
2022/09/14 09:31:44;;;;;;;;;;;21.80;99.90;;;20.92;61.01;100044.63;5035012;28;20682;-79
2022/09/14 09:34:23;;;;;;;12.48;2.03;;;21.60;99.90;;;20.90;61.03;100034.06;5037207;28;19921;-78
2022/09/14 09:36:54;;;;;;;21.02;2.78;;;21.60;99.90;;;20.86;60.57;100031.84;5050537;28;20048;-78
2022/09/14 09:39:30;;;;;;;9.98;1.85;;;21.50;99.90;;;20.71;60.60;100026.22;5052870;28;20021;-78
2022/09/14 09:42:26;;;;;;;10.90;2.10;;;21.30;99.90;;;20.75;60.42;100024.06;5049702;28;20039;-78
2022/09/14 09:45:09;;;;;;;16.88;2.70;;;21.40;99.90;;;20.83;61.81;100032.19;5049019;28;20108;-78
2022/09/14 09:47:45;;;;;;;13.82;2.22;;;21.30;99.90;;;20.70;61.11;100029.91;5050961;28;20032;-78
2022/09/14 09:50:25;;;;;;;10.65;2.33;;;21.40;99.90;;;20.75;60.87;100030.25;5036145;28;20025;-78
2022/09/14 09:53:00;;;;;;;11.65;1.90;;;21.50;99.90;;;20.93;60.31;100027.59;5052085;28;20629;-78
2022/09/14 09:55:37;;;;;;;12.05;2.50;;;21.50;99.90;;;20.81;60.67;100026.97;5050307;28;20612;-78
2022/09/14 09:58:24;;;;;;;;;;;21.50;99.90;;;20.48;60.45;100021.31;5032626;28;20852;-78
2022/09/14 10:01:18;;;;;;;15.95;2.40;;;21.30;99.90;;;20.33;60.94;100027.34;5051525;28;19909;-78
2022/09/14 10:04:06;;;;;;;19.52;2.50;;;21.20;99.90;;;20.38;61.80;100025.88;5051937;28;20453;-78
2022/09/14 10:06:50;;;;;;;20.35;2.80;;;21.20;99.90;;;20.57;60.66;100019.59;5033112;28;20025;-78
2022/09/14 10:09:28;;;;;;;11.90;2.45;;;21.30;99.90;;;20.95;60.82;100025.59;5051124;28;20044;-78
2022/09/14 10:12:04;;;;;;;17.73;2.20;;;21.60;99.90;;;21.43;59.61;100023.44;5051555;28;20033;-78
2022/09/14 10:14:34;;;;;;;11.63;2.00;;;22.00;99.90;;;21.78;58.25;100017.06;5035425;28;20070;-78
2022/09/14 10:17:22;;;;;;;14.45;2.45;;;22.20;99.90;;;21.99;58.52;100026.53;5050083;28;20045;-78
2022/09/14 10:19:53;;;;;;;10.20;2.28;;;22.40;99.90;;;22.04;58.39;100021.50;5043964;28;20128;-78
2022/09/14 10:22:33;;;;;;;12.40;2.15;;;22.50;99.90;;;21.84;58.28;100026.31;5051139;28;20049;-78
2022/09/14 10:25:17;;;;;;;17.73;2.50;;;22.30;99.90;;;21.60;57.70;100017.16;5033885;28;20045;-78
2022/09/14 10:28:00;;;;;;;16.55;2.30;;;22.20;99.90;;;21.61;58.48;100015.31;5051612;28;20028;-78
2022/09/14 10:30:37;;;;;;;10.23;2.00;;;22.10;99.90;;;21.49;58.36;100015.59;5033417;28;20025;-78
2022/09/14 10:33:14;;;;;;;12.18;2.13;;;22.10;99.90;;;21.44;57.94;100011.69;5051106;28;20045;-78
2022/09/14 10:35:55;;;;;;;11.05;2.05;;;22.00;99.90;;;21.27;58.02;100010.72;5034588;28;20489;-78
2022/09/14 10:39:20;;;;;;;12.82;2.35;;;21.90;99.90;;;21.12;58.42;100004.28;5052231;28;20059;-78
2022/09/14 10:42:37;;;;;;;10.10;2.28;;;21.80;99.90;;;20.99;58.51;100005.56;5043074;23;20087;-78
2022/09/14 10:45:45;;;;;;;12.40;2.33;;;21.70;99.90;;;20.83;58.91;100006.25;5055381;28;20040;-78
2022/09/14 10:48:59;;;;;;;13.20;2.17;;;21.50;99.90;;;20.71;60.66;100012.00;5080958;28;20405;-77
2022/09/14 10:51:43;;;;;;;19.38;2.35;;;21.50;99.90;;;20.98;60.45;100014.56;5071105;28;20545;-78
2022/09/14 10:54:50;;;;;;;14.77;2.22;;;21.60;99.90;;;21.06;59.92;100005.78;5082907;28;20075;-78
2022/09/14 10:57:52;;;;;;;10.30;1.95;;;21.70;99.90;;;21.25;59.40;100008.22;5085605;28;20067;-78
2022/09/14 11:00:21;;;;;;;9.95;2.17;;;21.80;99.90;;;21.32;59.72;100008.44;5083251;28;20048;-78
2022/09/14 11:03:24;;;;;;;11.25;2.38;;;21.90;99.90;;;21.28;58.89;100007.91;5065004;28;20469;-78
2022/09/14 11:06:27;;;;;;;14.93;2.10;;;21.90;99.90;;;21.12;58.61;100001.59;5070023;28;20024;-78
2022/09/14 11:09:31;;;;;;;9.82;1.80;;;21.60;99.90;;;20.96;60.99;99994.31;5085845;28;20068;-78